• Join FlightAware (Why Join?)
  • Login
  • US Flag 
09:16PM EDT


 

Airport Tracker/Info


-or-


 

Live Flight TrackerFlight Track Log ✈ GJS3710 ✈ 18-May-2013 ✈ KAUS - KDEN

Flight Track Log - Related Links

Times and Time Zones

All times are in EDT time to prevent confusion due to time zone crossing. See the GJS3710 flight status page for this flight to view local times or setup timezone preferences in your user account.

Time Position Orientation Groundspeed Altitude Reporting Facility
EDT Latitude Longitude Course Direction KTS MPH feet Rate Location/Type
01:06PM 30.1972 -97.7669 291° West 246 283 5,500  Level Houston Center
01:07PM 30.4462 -97.7519 293° West  Level FlightAware Approximate
01:07PM 30.2481 -97.8444 307° West 287 330 7,800  Level Houston Center
01:08PM 30.4900 -97.8723 293° West  Level FlightAware Approximate
01:08PM 30.3006 -97.9367 303° West 303 349 10,800  Level Houston Center
01:09PM 30.5314 -97.9939 291° West  Level FlightAware Approximate
01:09PM 30.3531 -98.0239 305° West 307 353 13,100  Level Houston Center
01:10PM 30.5721 -98.1159 291° West  Level FlightAware Approximate
01:10PM 30.4033 -98.1125 303° West 321 369 14,900  Level Houston Center
01:11PM 30.6127 -98.2380 291° West  Level FlightAware Approximate
01:11PM 30.4806 -98.1847 321° Northwest 351 404 17,000  Level Houston Center
01:12PM 30.5653 -98.2547 325° Northwest 365 420 18,800 1,620 Climbing Houston Center
01:13PM 30.6533 -98.3267 325° Northwest 379 436 20,400 1,440 Climbing Houston Center
01:14PM 30.7464 -98.4025 325° Northwest 397 457 21,800 1,320 Climbing Houston Center
01:15PM 30.8414 -98.4797 325° Northwest 408 470 23,200 1,500 Climbing Houston Center
01:16PM 30.9378 -98.5583 325° Northwest 416 479 25,000 1,560 Climbing Houston Center
01:17PM 31.0328 -98.6372 325° Northwest 414 476 26,500 1,380 Climbing Houston Center
01:18PM 31.1294 -98.7175 325° Northwest 419 482 27,900 1,260 Climbing Houston Center
01:19PM 31.2411 -98.8122 324° Northwest 420 483 29,100 1,020 Climbing Houston Center
01:20PM 31.3386 -98.8947 324° Northwest 426 490 30,100 900 Climbing Houston Center
01:21PM 31.4064 -98.9542 323° Northwest 428 493 30,800 1,080 Climbing Fort Worth Center
01:22PM 31.5033 -99.0361 324° Northwest 439 505 32,100 1,380 Climbing Fort Worth Center
01:23PM 31.5983 -99.1108 326° Northwest 429 494 33,600 1,320 Climbing Fort Worth Center
01:24PM 31.6933 -99.1883 325° Northwest 417 480 34,800 1,140 Climbing Fort Worth Center
01:25PM 31.7861 -99.2708 323° Northwest 417 480 35,900 780 Climbing Fort Worth Center
01:26PM 31.8789 -99.3486 325° Northwest 411 473 36,400 480 Climbing Fort Worth Center
01:27PM 31.9758 -99.4289 325° Northwest 411 473 36,900 480 Climbing Fort Worth Center
01:28PM 32.0683 -99.5119 323° Northwest 416 479 37,400 480 Climbing Fort Worth Center
01:29PM 32.1672 -99.5928 325° Northwest 426 490 37,900 300 Climbing Fort Worth Center
01:30PM 32.2617 -99.6761 323° Northwest 426 490 38,000  Climbing Fort Worth Center
01:31PM 32.3583 -99.7572 325° Northwest 426 490 38,000  Level Fort Worth Center
01:32PM 32.4528 -99.8408 323° Northwest 426 490 38,000  Level Fort Worth Center
01:33PM 32.5494 -99.9125 328° Northwest 426 490 38,000  Level Fort Worth Center
01:34PM 32.6650 -99.9800 334° Northwest 432 497 38,000  Level Fort Worth Center
01:35PM 32.7803 -100.0622 329° Northwest 438 504 38,000  Level Fort Worth Center
01:36PM 32.8853 -100.1247 333° Northwest 432 497 38,000  Level Fort Worth Center
01:37PM 32.9903 -100.1922 332° Northwest 432 497 38,000  Level Fort Worth Center
01:38PM 33.0953 -100.2625 331° Northwest 427 491 38,000  Level Fort Worth Center
01:39PM 33.2022 -100.3306 332° Northwest 427 491 38,000  Level Fort Worth Center
01:40PM 33.3092 -100.3986 332° Northwest 427 491 38,000  Level Fort Worth Center
01:41PM 33.4139 -100.4719 330° Northwest 427 491 38,000  Level Fort Worth Center
01:42PM 33.5247 -100.5406 333° Northwest 427 491 38,000  Level Fort Worth Center
01:43PM 33.6294 -100.6117 331° Northwest 427 491 38,000  Level Fort Worth Center
01:44PM 33.7361 -100.6806 332° Northwest 427 491 38,000  Level Fort Worth Center
01:45PM 33.8428 -100.7544 330° Northwest 427 491 38,000  Level Fort Worth Center
01:46PM 33.9494 -100.8186 333° Northwest 427 491 38,000  Level Fort Worth Center
01:47PM 34.1058 -100.9250 331° Northwest 426 490 38,000  Level Albuquerque Center
01:48PM 34.2086 -100.9967 330° Northwest 426 490 38,000  Level Albuquerque Center
01:50PM 34.3122 -101.0664 331° Northwest 426 490 38,000  Level Albuquerque Center
01:51PM 34.4167 -101.1361 331° Northwest 428 493 38,000  Level Albuquerque Center
01:52PM 34.5214 -101.2083 330° Northwest 432 497 38,000  Level Albuquerque Center
01:53PM 34.6494 -101.2942 331° Northwest 436 502 38,000  Level Albuquerque Center
01:54PM 34.7558 -101.3678 330° Northwest 439 505 38,000  Level Albuquerque Center
01:55PM 34.8628 -101.4406 331° Northwest 441 507 38,000  Level Albuquerque Center
01:56PM 34.9689 -101.5142 330° Northwest 441 507 38,000  Level Albuquerque Center
01:57PM 35.0767 -101.5881 331° Northwest 447 514 38,000  Level Albuquerque Center
01:58PM 35.1872 -101.6625 331° Northwest 444 511 38,000  Level Albuquerque Center
01:59PM 35.3153 -101.7350 335° Northwest 435 501 38,000  Level Albuquerque Center
02:00PM 35.4342 -101.7889 340° North 445 512 38,000  Level Albuquerque Center
02:01PM 35.5333 -101.8361 339° North 439 505 38,000  Level Albuquerque Center
02:02PM 35.6714 -101.9008 339° North 440 506 38,000  Level Albuquerque Center
02:03PM 35.7892 -101.9542 340° North 447 514 38,000  Level Albuquerque Center
02:04PM 35.9083 -102.0108 339° North 454 522 38,000  Level Albuquerque Center
02:05PM 36.0292 -102.0672 339° North 462 532 38,000  Level Albuquerque Center
02:06PM 36.1514 -102.1233 340° North 468 539 38,000  Level Albuquerque Center
02:07PM 36.2739 -102.1817 339° North 471 542 38,000  Level Albuquerque Center
02:08PM 36.3978 -102.2400 339° North 475 547 38,000  Level Albuquerque Center
02:09PM 36.5453 -102.3106 339° North 474 545 38,000 -240 Level Albuquerque Center
02:10PM 36.6669 -102.3681 339° North 470 541 37,600 -720 Descending Albuquerque Center
02:11PM 36.7892 -102.4264 339° North 470 541 36,600 -780 Descending Albuquerque Center
02:12PM 36.9147 -102.4864 339° North 469 540 36,000 -300 Descending Albuquerque Center
02:13PM 37.0336 -102.5450 339° North 471 542 36,000  Level Albuquerque Center
02:14PM 37.1725 -102.6128 339° North 476 548 36,000  Level Albuquerque Center
02:15PM 37.2947 -102.6722 339° North 483 556 36,000  Level Albuquerque Center
02:16PM 37.4369 -102.7381 340° North 488 562 36,000  Level Denver Center
02:17PM 37.5797 -102.7983 342° North 485 558 36,000 -300 Level Denver Center
02:18PM 37.6928 -102.8714 333° Northwest 482 555 35,500 -780 Descending Denver Center
02:19PM 37.8203 -102.9703 329° Northwest 481 554 34,400 -780 Descending Denver Center
02:21PM 37.9294 -103.0556 328° Northwest 483 556 34,000 -240 Descending Denver Center
02:22PM 38.0522 -103.1525 328° Northwest 472 543 34,000  Level Denver Center
02:23PM 38.1606 -103.2386 328° Northwest 478 550 34,000  Level Denver Center
02:24PM 38.2703 -103.3239 329° Northwest 483 556 34,000  Level Denver Center
02:25PM 38.4000 -103.4269 328° Northwest 475 547 34,000  Level Denver Center
02:26PM 38.4994 -103.5069 328° Northwest 467 537 34,000 -540 Level Denver Center
02:27PM 38.6250 -103.6083 328° Northwest 480 552 33,000 -1,020 Descending Denver Center
02:28PM 38.7389 -103.6994 328° Northwest 500 575 32,000 -1,980 Descending Denver Center
02:29PM 38.8719 -103.8078 328° Northwest 506 582 29,000 -3,180 Descending Denver Center
02:30PM 38.9828 -103.8969 328° Northwest 496 571 25,600 -3,540 Descending Denver Center
02:31PM 39.1067 -103.9994 327° Northwest 476 548 21,700 -3,000 Descending Denver Center
02:32PM 39.2028 -104.0786 327° Northwest 450 518 19,500 -1,860 Descending Denver Center
02:33PM 39.2722 -104.1819 311° West 354 407 17,900 -1,740 Descending Denver Center
02:34PM 39.2975 -104.2956 286° West 333 383 16,000 -1,740 Descending Denver Center
02:35PM 39.3253 -104.4025 289° West 318 366 14,400 -1,740 Descending Denver Center
02:36PM 39.4078 -104.4581 333° Northwest 315 362 12,500 -1,740 Descending Denver Center
02:37PM 39.4850 -104.5006 337° Northwest 303 349 10,900 -1,320 Descending Denver Center
02:38PM 39.5644 -104.5431 338° Northwest 288 331 9,900 -1,020 Descending Denver Center
02:39PM 39.6236 -104.5781 336° Northwest 242 278 8,800 -900 Descending Denver Center
02:40PM 39.6767 -104.6072 337° Northwest 214 246 8,100 -720 Descending Denver Center
02:41PM 39.7336 -104.6317 342° North 203 234 7,400 -720 Descending Denver Center